sensor_id;sensor_type;location;lat;lon;timestamp;pressure;altitude;pressure_sealevel;temperature;humidity
50364;BME280;36272;59.400;17.982;2022-07-18T00:03:50;101423.63;;;18.85;59.40
50364;BME280;36272;59.400;17.982;2022-07-18T00:08:51;101414.94;;;18.83;59.58
50364;BME280;36272;59.400;17.982;2022-07-18T00:13:54;101414.66;;;18.79;59.89
50364;BME280;36272;59.400;17.982;2022-07-18T00:18:56;101414.38;;;18.76;60.14
50364;BME280;36272;59.400;17.982;2022-07-18T00:24:00;101402.44;;;18.71;60.36
50364;BME280;36272;59.400;17.982;2022-07-18T00:29:02;101408.66;;;18.72;60.18
50364;BME280;36272;59.400;17.982;2022-07-18T00:34:04;101407.28;;;18.69;60.48
50364;BME280;36272;59.400;17.982;2022-07-18T00:39:06;101408.94;;;18.70;60.74
50364;BME280;36272;59.400;17.982;2022-07-18T00:44:19;101401.31;;;18.67;60.74
50364;BME280;36272;59.400;17.982;2022-07-18T00:49:21;101391.81;;;18.65;60.77
50364;BME280;36272;59.400;17.982;2022-07-18T00:54:22;101398.81;;;18.61;60.93
50364;BME280;36272;59.400;17.982;2022-07-18T00:59:25;101390.41;;;18.57;60.78
50364;BME280;36272;59.400;17.982;2022-07-18T01:04:46;101400.13;;;18.53;61.00
50364;BME280;36272;59.400;17.982;2022-07-18T01:09:48;101401.66;;;18.43;61.10
50364;BME280;36272;59.400;17.982;2022-07-18T01:14:49;101410.25;;;18.35;61.29
50364;BME280;36272;59.400;17.982;2022-07-18T01:19:52;101408.91;;;18.33;61.34
50364;BME280;36272;59.400;17.982;2022-07-18T01:24:54;101411.03;;;18.31;61.48
50364;BME280;36272;59.400;17.982;2022-07-18T01:29:55;101405.06;;;18.28;61.63
50364;BME280;36272;59.400;17.982;2022-07-18T01:34:57;101412.34;;;18.23;61.87
50364;BME280;36272;59.400;17.982;2022-07-18T01:39:58;101415.00;;;18.18;62.07
50364;BME280;36272;59.400;17.982;2022-07-18T01:45:00;101412.22;;;18.12;62.63
50364;BME280;36272;59.400;17.982;2022-07-18T01:50:02;101411.38;;;18.07;62.84
50364;BME280;36272;59.400;17.982;2022-07-18T01:55:06;101404.06;;;18.07;62.69
50364;BME280;36272;59.400;17.982;2022-07-18T02:00:10;101399.47;;;18.08;62.65
50364;BME280;36272;59.400;17.982;2022-07-18T02:05:12;101415.97;;;18.06;62.92
50364;BME280;36272;59.400;17.982;2022-07-18T02:10:17;101393.94;;;17.97;63.49
50364;BME280;36272;59.400;17.982;2022-07-18T02:15:19;101413.94;;;17.96;63.22
50364;BME280;36272;59.400;17.982;2022-07-18T02:20:21;101408.78;;;17.95;63.70
50364;BME280;36272;59.400;17.982;2022-07-18T02:25:22;101408.22;;;17.93;63.46
50364;BME280;36272;59.400;17.982;2022-07-18T02:30:24;101397.34;;;17.88;63.67
50364;BME280;36272;59.400;17.982;2022-07-18T02:35:26;101400.00;;;17.82;64.11
50364;BME280;36272;59.400;17.982;2022-07-18T02:40:27;101402.59;;;17.72;64.27
50364;BME280;36272;59.400;17.982;2022-07-18T02:45:30;101394.63;;;17.60;64.54
50364;BME280;36272;59.400;17.982;2022-07-18T02:50:31;101412.16;;;17.58;64.78
50364;BME280;36272;59.400;17.982;2022-07-18T02:55:33;101405.63;;;17.53;65.00
50364;BME280;36272;59.400;17.982;2022-07-18T03:00:34;101410.97;;;17.48;65.27
50364;BME280;36272;59.400;17.982;2022-07-18T03:05:36;101402.28;;;17.46;65.61
50364;BME280;36272;59.400;17.982;2022-07-18T03:10:38;101409.59;;;17.46;66.05
50364;BME280;36272;59.400;17.982;2022-07-18T03:15:40;101392.03;;;17.48;66.15
50364;BME280;36272;59.400;17.982;2022-07-18T03:20:41;101403.97;;;17.52;66.58
50364;BME280;36272;59.400;17.982;2022-07-18T03:25:43;101393.72;;;17.54;66.82
50364;BME280;36272;59.400;17.982;2022-07-18T03:30:45;101401.91;;;17.60;67.24
50364;BME280;36272;59.400;17.982;2022-07-18T03:35:46;101394.41;;;17.67;67.60
50364;BME280;36272;59.400;17.982;2022-07-18T03:40:48;101389.31;;;17.71;67.87
50364;BME280;36272;59.400;17.982;2022-07-18T03:45:50;101388.63;;;17.80;68.11
50364;BME280;36272;59.400;17.982;2022-07-18T03:50:51;101394.16;;;17.96;68.46
50364;BME280;36272;59.400;17.982;2022-07-18T03:55:53;101388.66;;;18.08;68.56
50364;BME280;36272;59.400;17.982;2022-07-18T04:00:54;101383.88;;;18.20;68.95
50364;BME280;36272;59.400;17.982;2022-07-18T04:05:56;101377.47;;;18.32;69.04
50364;BME280;36272;59.400;17.982;2022-07-18T04:10:58;101389.72;;;18.39;68.96
50364;BME280;36272;59.400;17.982;2022-07-18T04:15:59;101387.09;;;18.50;69.00
50364;BME280;36272;59.400;17.982;2022-07-18T04:21:01;101386.56;;;18.53;69.51
50364;BME280;36272;59.400;17.982;2022-07-18T04:26:03;101386.09;;;18.61;69.82
50364;BME280;36272;59.400;17.982;2022-07-18T04:31:05;101381.78;;;18.65;70.36
50364;BME280;36272;59.400;17.982;2022-07-18T04:36:07;101381.88;;;18.76;70.75
50364;BME280;36272;59.400;17.982;2022-07-18T04:41:08;101384.06;;;18.84;71.17
50364;BME280;36272;59.400;17.982;2022-07-18T04:46:10;101382.84;;;18.97;71.75
50364;BME280;36272;59.400;17.982;2022-07-18T04:51:12;101384.81;;;19.12;71.56
50364;BME280;36272;59.400;17.982;2022-07-18T04:56:13;101377.25;;;19.19;71.95
50364;BME280;36272;59.400;17.982;2022-07-18T05:01:15;101378.34;;;19.28;72.27
50364;BME280;36272;59.400;17.982;2022-07-18T05:06:16;101383.03;;;19.43;72.06
50364;BME280;36272;59.400;17.982;2022-07-18T05:11:18;101385.00;;;19.58;71.51
50364;BME280;36272;59.400;17.982;2022-07-18T05:16:20;101370.63;;;19.68;71.16
50364;BME280;36272;59.400;17.982;2022-07-18T05:21:21;101382.59;;;19.72;71.22
50364;BME280;36272;59.400;17.982;2022-07-18T05:26:23;101385.00;;;19.74;71.56
50364;BME280;36272;59.400;17.982;2022-07-18T05:31:25;101377.72;;;19.80;71.52
50364;BME280;36272;59.400;17.982;2022-07-18T05:36:27;101387.19;;;19.82;71.64
50364;BME280;36272;59.400;17.982;2022-07-18T05:41:28;101378.81;;;19.89;71.47
50364;BME280;36272;59.400;17.982;2022-07-18T05:46:30;101386.44;;;19.97;71.31
50364;BME280;36272;59.400;17.982;2022-07-18T05:51:32;101381.56;;;20.04;71.45
50364;BME280;36272;59.400;17.982;2022-07-18T05:56:34;101376.94;;;20.10;71.07
50364;BME280;36272;59.400;17.982;2022-07-18T06:01:35;101384.00;;;20.16;70.89
50364;BME280;36272;59.400;17.982;2022-07-18T06:06:37;101373.16;;;20.21;71.02
50364;BME280;36272;59.400;17.982;2022-07-18T06:11:39;101368.56;;;20.22;71.12
50364;BME280;36272;59.400;17.982;2022-07-18T06:16:42;101356.63;;;20.28;71.10
50364;BME280;36272;59.400;17.982;2022-07-18T06:21:44;101369.91;;;20.35;70.61
50364;BME280;36272;59.400;17.982;2022-07-18T06:26:45;101363.09;;;20.43;71.01
50364;BME280;36272;59.400;17.982;2022-07-18T06:31:47;101365.28;;;20.51;70.52
50364;BME280;36272;59.400;17.982;2022-07-18T06:36:49;101359.00;;;20.61;70.41
50364;BME280;36272;59.400;17.982;2022-07-18T06:41:50;101368.75;;;20.72;69.94
50364;BME280;36272;59.400;17.982;2022-07-18T06:46:52;101360.63;;;20.88;69.53
50364;BME280;36272;59.400;17.982;2022-07-18T06:51:54;101363.28;;;20.98;68.95
50364;BME280;36272;59.400;17.982;2022-07-18T06:56:58;101348.59;;;20.99;68.80
50364;BME280;36272;59.400;17.982;2022-07-18T07:02:02;101356.72;;;21.09;68.99
50364;BME280;36272;59.400;17.982;2022-07-18T07:07:04;101370.28;;;21.20;67.75
50364;BME280;36272;59.400;17.982;2022-07-18T07:12:06;101369.72;;;21.23;67.69
50364;BME280;36272;59.400;17.982;2022-07-18T07:17:08;101360.69;;;21.38;67.64
50364;BME280;36272;59.400;17.982;2022-07-18T07:22:09;101369.56;;;21.54;67.21
50364;BME280;36272;59.400;17.982;2022-07-18T07:27:11;101371.19;;;21.55;67.14
50364;BME280;36272;59.400;17.982;2022-07-18T07:32:12;101382.06;;;21.60;67.15
50364;BME280;36272;59.400;17.982;2022-07-18T07:37:14;101379.06;;;21.67;66.92
50364;BME280;36272;59.400;17.982;2022-07-18T07:42:16;101374.38;;;21.78;66.58
50364;BME280;36272;59.400;17.982;2022-07-18T07:47:17;101378.56;;;21.99;66.22
50364;BME280;36272;59.400;17.982;2022-07-18T07:52:22;101352.03;;;22.16;65.65
50364;BME280;36272;59.400;17.982;2022-07-18T07:57:26;101370.16;;;22.31;65.11
50364;BME280;36272;59.400;17.982;2022-07-18T08:02:28;101370.63;;;22.38;64.64
50364;BME280;36272;59.400;17.982;2022-07-18T08:07:30;101382.75;;;22.56;63.94
50364;BME280;36272;59.400;17.982;2022-07-18T08:12:31;101375.34;;;22.62;63.96
50364;BME280;36272;59.400;17.982;2022-07-18T08:17:33;101362.00;;;22.60;63.94
50364;BME280;36272;59.400;17.982;2022-07-18T08:22:34;101362.44;;;22.72;64.15
50364;BME280;36272;59.400;17.982;2022-07-18T08:27:49;101343.56;;;22.76;62.90
50364;BME280;36272;59.400;17.982;2022-07-18T08:32:54;101347.81;;;22.87;62.82
50364;BME280;36272;59.400;17.982;2022-07-18T08:37:57;101357.03;;;22.92;62.69
50364;BME280;36272;59.400;17.982;2022-07-18T08:42:59;101353.88;;;23.03;62.26
50364;BME280;36272;59.400;17.982;2022-07-18T08:48:01;101345.53;;;23.19;61.83
50364;BME280;36272;59.400;17.982;2022-07-18T08:53:02;101345.50;;;23.43;61.10
50364;BME280;36272;59.400;17.982;2022-07-18T08:58:04;101345.00;;;23.41;60.90
50364;BME280;36272;59.400;17.982;2022-07-18T09:03:06;101337.25;;;23.49;61.28
50364;BME280;36272;59.400;17.982;2022-07-18T09:08:18;101327.94;;;23.50;60.46
50364;BME280;36272;59.400;17.982;2022-07-18T09:13:25;101329.06;;;23.49;60.32
50364;BME280;36272;59.400;17.982;2022-07-18T09:18:42;101336.34;;;23.53;60.81
50364;BME280;36272;59.400;17.982;2022-07-18T09:23:47;101339.72;;;23.64;60.40
50364;BME280;36272;59.400;17.982;2022-07-18T09:28:53;101350.16;;;23.81;60.11
50364;BME280;36272;59.400;17.982;2022-07-18T09:33:57;101344.59;;;23.86;59.09
50364;BME280;36272;59.400;17.982;2022-07-18T09:38:59;101350.56;;;23.88;59.60
50364;BME280;36272;59.400;17.982;2022-07-18T09:44:14;101351.97;;;23.86;58.92
50364;BME280;36272;59.400;17.982;2022-07-18T09:49:16;101354.03;;;23.94;58.32
50364;BME280;36272;59.400;17.982;2022-07-18T09:54:18;101363.50;;;23.83;58.33
50364;BME280;36272;59.400;17.982;2022-07-18T09:59:33;101348.16;;;23.87;58.03
50364;BME280;36272;59.400;17.982;2022-07-18T10:04:43;101357.75;;;23.84;57.71
50364;BME280;36272;59.400;17.982;2022-07-18T10:09:45;101367.66;;;23.99;57.70
50364;BME280;36272;59.400;17.982;2022-07-18T10:14:47;101359.34;;;24.24;56.57
50364;BME280;36272;59.400;17.982;2022-07-18T10:19:49;101366.97;;;24.41;56.35
50364;BME280;36272;59.400;17.982;2022-07-18T10:24:51;101371.34;;;24.70;54.83
50364;BME280;36272;59.400;17.982;2022-07-18T10:30:11;101355.06;;;24.78;54.72
50364;BME280;36272;59.400;17.982;2022-07-18T10:35:15;101348.28;;;24.90;54.99
50364;BME280;36272;59.400;17.982;2022-07-18T10:40:28;101349.31;;;24.80;55.23
50364;BME280;36272;59.400;17.982;2022-07-18T10:45:45;101348.28;;;24.76;55.23
50364;BME280;36272;59.400;17.982;2022-07-18T10:51:06;101339.91;;;24.72;54.40
50364;BME280;36272;59.400;17.982;2022-07-18T10:56:08;101360.31;;;24.61;53.93
50364;BME280;36272;59.400;17.982;2022-07-18T11:01:16;101333.94;;;24.51;53.92
50364;BME280;36272;59.400;17.982;2022-07-18T11:06:18;101346.03;;;24.50;54.44
50364;BME280;36272;59.400;17.982;2022-07-18T11:11:20;101345.00;;;24.46;54.72
50364;BME280;36272;59.400;17.982;2022-07-18T11:16:23;101348.94;;;24.40;54.84
50364;BME280;36272;59.400;17.982;2022-07-18T11:21:34;101339.81;;;24.30;55.23
50364;BME280;36272;59.400;17.982;2022-07-18T11:26:42;101330.69;;;24.35;55.11
50364;BME280;36272;59.400;17.982;2022-07-18T11:31:45;101336.81;;;24.46;54.79
50364;BME280;36272;59.400;17.982;2022-07-18T11:36:48;101314.34;;;24.63;54.45
50364;BME280;36272;59.400;17.982;2022-07-18T11:41:49;101330.16;;;24.80;53.33
50364;BME280;36272;59.400;17.982;2022-07-18T11:47:01;101307.06;;;24.86;52.64
50364;BME280;36272;59.400;17.982;2022-07-18T11:52:05;101302.22;;;24.83;52.38
50364;BME280;36272;59.400;17.982;2022-07-18T11:57:07;101313.03;;;24.88;52.51
50364;BME280;36272;59.400;17.982;2022-07-18T12:02:08;101314.34;;;24.77;52.82
50364;BME280;36272;59.400;17.982;2022-07-18T12:07:17;101306.13;;;24.63;52.07
50364;BME280;36272;59.400;17.982;2022-07-18T12:12:22;101307.03;;;24.58;51.90
50364;BME280;36272;59.400;17.982;2022-07-18T12:17:24;101308.56;;;24.50;52.52
50364;BME280;36272;59.400;17.982;2022-07-18T12:22:26;101307.25;;;24.48;52.51
50364;BME280;36272;59.400;17.982;2022-07-18T12:32:52;101293.50;;;24.81;52.46
50364;BME280;36272;59.400;17.982;2022-07-18T12:38:07;101293.91;;;24.88;52.33
50364;BME280;36272;59.400;17.982;2022-07-18T12:43:11;101292.19;;;24.92;52.68
50364;BME280;36272;59.400;17.982;2022-07-18T12:48:13;101302.59;;;25.04;52.71
50364;BME280;36272;59.400;17.982;2022-07-18T12:53:15;101301.38;;;25.11;53.34
50364;BME280;36272;59.400;17.982;2022-07-18T12:58:16;101295.75;;;25.30;52.81
50364;BME280;36272;59.400;17.982;2022-07-18T13:03:18;101300.25;;;25.48;52.32
50364;BME280;36272;59.400;17.982;2022-07-18T13:08:20;101291.31;;;25.57;51.97
50364;BME280;36272;59.400;17.982;2022-07-18T13:13:24;101281.41;;;25.69;51.55
50364;BME280;36272;59.400;17.982;2022-07-18T13:18:25;101292.06;;;25.71;51.44
50364;BME280;36272;59.400;17.982;2022-07-18T13:23:27;101287.50;;;25.89;51.45
50364;BME280;36272;59.400;17.982;2022-07-18T13:28:29;101279.47;;;26.16;51.10
50364;BME280;36272;59.400;17.982;2022-07-18T13:33:30;101271.03;;;26.43;50.48
50364;BME280;36272;59.400;17.982;2022-07-18T13:38:32;101266.75;;;26.60;50.40
50364;BME280;36272;59.400;17.982;2022-07-18T13:43:35;101259.34;;;26.78;50.36
50364;BME280;36272;59.400;17.982;2022-07-18T13:48:38;101247.56;;;26.78;49.97
50364;BME280;36272;59.400;17.982;2022-07-18T13:53:40;101265.75;;;26.56;51.07
50364;BME280;36272;59.400;17.982;2022-07-18T13:58:42;101266.19;;;26.40;50.92
50364;BME280;36272;59.400;17.982;2022-07-18T14:03:43;101254.63;;;26.61;50.65
50364;BME280;36272;59.400;17.982;2022-07-18T14:08:45;101258.16;;;26.53;50.94
50364;BME280;36272;59.400;17.982;2022-07-18T14:13:46;101253.09;;;26.37;51.13
50364;BME280;36272;59.400;17.982;2022-07-18T14:18:48;101253.84;;;26.20;51.55
50364;BME280;36272;59.400;17.982;2022-07-18T14:23:50;101259.66;;;26.19;51.40
50364;BME280;36272;59.400;17.982;2022-07-18T14:28:53;101244.47;;;25.90;51.18
50364;BME280;36272;59.400;17.982;2022-07-18T14:33:54;101256.25;;;25.67;51.18
50364;BME280;36272;59.400;17.982;2022-07-18T14:38:56;101246.81;;;25.51;52.13
50364;BME280;36272;59.400;17.982;2022-07-18T14:43:57;101250.03;;;25.76;52.34
50364;BME280;36272;59.400;17.982;2022-07-18T14:49:00;101241.66;;;26.04;51.71
50364;BME280;36272;59.400;17.982;2022-07-18T14:54:02;101235.13;;;25.91;51.33
50364;BME280;36272;59.400;17.982;2022-07-18T14:59:04;101234.50;;;25.94;51.29
50364;BME280;36272;59.400;17.982;2022-07-18T15:04:05;101220.84;;;26.34;50.91
50364;BME280;36272;59.400;17.982;2022-07-18T15:09:07;101214.56;;;26.34;50.75
50364;BME280;36272;59.400;17.982;2022-07-18T15:14:10;101216.44;;;26.16;51.28
50364;BME280;36272;59.400;17.982;2022-07-18T15:19:12;101233.50;;;25.90;51.17
50364;BME280;36272;59.400;17.982;2022-07-18T15:24:13;101252.97;;;25.57;52.27
50364;BME280;36272;59.400;17.982;2022-07-18T15:29:15;101280.22;;;23.47;62.19
50364;BME280;36272;59.400;17.982;2022-07-18T15:34:16;101260.81;;;21.83;69.13
50364;BME280;36272;59.400;17.982;2022-07-18T15:39:18;101258.19;;;21.28;72.85
50364;BME280;36272;59.400;17.982;2022-07-18T15:44:19;101245.75;;;21.17;75.78
50364;BME280;36272;59.400;17.982;2022-07-18T15:49:21;101236.28;;;21.49;78.03
50364;BME280;36272;59.400;17.982;2022-07-18T15:54:48;101217.56;;;21.82;78.08
50364;BME280;36272;59.400;17.982;2022-07-18T16:00:00;101212.81;;;21.63;79.29
50364;BME280;36272;59.400;17.982;2022-07-18T16:05:11;101200.78;;;21.69;80.98
50364;BME280;36272;59.400;17.982;2022-07-18T16:10:16;101216.19;;;21.79;81.31
50364;BME280;36272;59.400;17.982;2022-07-18T16:15:48;101217.59;;;21.77;82.36
50364;BME280;36272;59.400;17.982;2022-07-18T16:20:49;101223.09;;;21.72;83.60
50364;BME280;36272;59.400;17.982;2022-07-18T16:25:51;101220.03;;;21.78;83.79
50364;BME280;36272;59.400;17.982;2022-07-18T16:30:53;101203.16;;;21.76;83.60
50364;BME280;36272;59.400;17.982;2022-07-18T16:35:55;101208.75;;;21.90;84.29
50364;BME280;36272;59.400;17.982;2022-07-18T16:40:58;101205.31;;;22.09;83.36
50364;BME280;36272;59.400;17.982;2022-07-18T16:46:00;101191.16;;;22.07;83.14
50364;BME280;36272;59.400;17.982;2022-07-18T16:51:07;101187.91;;;22.05;82.94
50364;BME280;36272;59.400;17.982;2022-07-18T16:56:10;101198.34;;;21.97;81.60
50364;BME280;36272;59.400;17.982;2022-07-18T17:01:11;101205.97;;;21.95;82.76
50364;BME280;36272;59.400;17.982;2022-07-18T17:06:13;101192.88;;;21.97;83.50
50364;BME280;36272;59.400;17.982;2022-07-18T17:11:19;101188.50;;;22.02;83.87
50364;BME280;36272;59.400;17.982;2022-07-18T17:16:24;101196.59;;;22.07;83.89
50364;BME280;36272;59.400;17.982;2022-07-18T17:21:25;101197.34;;;22.12;84.07
50364;BME280;36272;59.400;17.982;2022-07-18T17:26:28;101197.66;;;22.11;85.45
50364;BME280;36272;59.400;17.982;2022-07-18T17:31:29;101192.22;;;22.11;85.37
50364;BME280;36272;59.400;17.982;2022-07-18T17:36:32;101179.91;;;22.13;86.00
50364;BME280;36272;59.400;17.982;2022-07-18T17:41:35;101172.53;;;22.19;85.67
50364;BME280;36272;59.400;17.982;2022-07-18T17:46:37;101186.13;;;22.19;86.32
50364;BME280;36272;59.400;17.982;2022-07-18T17:51:41;101176.03;;;22.20;86.28
50364;BME280;36272;59.400;17.982;2022-07-18T17:56:43;101186.28;;;22.28;86.48
50364;BME280;36272;59.400;17.982;2022-07-18T18:01:45;101187.13;;;22.28;86.08
50364;BME280;36272;59.400;17.982;2022-07-18T18:06:46;101181.91;;;22.32;86.52
50364;BME280;36272;59.400;17.982;2022-07-18T18:11:48;101186.88;;;22.25;86.20
50364;BME280;36272;59.400;17.982;2022-07-18T18:16:50;101178.75;;;22.20;87.89
50364;BME280;36272;59.400;17.982;2022-07-18T18:21:52;101170.06;;;22.18;88.42
50364;BME280;36272;59.400;17.982;2022-07-18T18:26:54;101174.72;;;22.17;88.50
50364;BME280;36272;59.400;17.982;2022-07-18T18:31:56;101186.97;;;22.14;88.98
50364;BME280;36272;59.400;17.982;2022-07-18T18:42:44;101176.22;;;22.28;91.60
50364;BME280;36272;59.400;17.982;2022-07-18T18:47:46;101183.09;;;22.21;89.06
50364;BME280;36272;59.400;17.982;2022-07-18T18:52:50;101171.00;;;22.08;88.06
50364;BME280;36272;59.400;17.982;2022-07-18T18:57:52;101181.19;;;21.97;87.16
50364;BME280;36272;59.400;17.982;2022-07-18T19:02:54;101191.34;;;21.86;88.55
50364;BME280;36272;59.400;17.982;2022-07-18T19:07:56;101193.31;;;21.80;88.81
50364;BME280;36272;59.400;17.982;2022-07-18T19:13:00;101196.97;;;21.71;88.22
50364;BME280;36272;59.400;17.982;2022-07-18T19:18:05;101178.75;;;21.66;88.05
50364;BME280;36272;59.400;17.982;2022-07-18T19:23:09;101177.72;;;21.62;88.09
50364;BME280;36272;59.400;17.982;2022-07-18T19:28:14;101175.00;;;21.57;87.52
50364;BME280;36272;59.400;17.982;2022-07-18T19:33:16;101185.94;;;21.51;87.14
50364;BME280;36272;59.400;17.982;2022-07-18T19:38:17;101202.56;;;21.45;87.36
50364;BME280;36272;59.400;17.982;2022-07-18T19:43:19;101210.25;;;21.37;87.73
50364;BME280;36272;59.400;17.982;2022-07-18T19:48:21;101210.88;;;21.29;88.46
50364;BME280;36272;59.400;17.982;2022-07-18T19:53:22;101214.69;;;21.28;87.86
50364;BME280;36272;59.400;17.982;2022-07-18T19:58:24;101220.13;;;21.28;88.16
50364;BME280;36272;59.400;17.982;2022-07-18T20:03:28;101228.31;;;21.23;87.56
50364;BME280;36272;59.400;17.982;2022-07-18T20:08:29;101230.00;;;21.14;86.40
50364;BME280;36272;59.400;17.982;2022-07-18T20:13:31;101228.69;;;21.06;86.73
50364;BME280;36272;59.400;17.982;2022-07-18T20:18:33;101227.63;;;21.02;86.17
50364;BME280;36272;59.400;17.982;2022-07-18T20:23:34;101228.19;;;20.93;86.20
50364;BME280;36272;59.400;17.982;2022-07-18T20:28:36;101232.84;;;20.88;87.08
50364;BME280;36272;59.400;17.982;2022-07-18T20:33:38;101235.31;;;20.84;86.77
50364;BME280;36272;59.400;17.982;2022-07-18T20:38:39;101226.91;;;20.80;86.99
50364;BME280;36272;59.400;17.982;2022-07-18T20:43:41;101223.91;;;20.77;87.08
50364;BME280;36272;59.400;17.982;2022-07-18T20:48:43;101230.16;;;20.72;86.78
50364;BME280;36272;59.400;17.982;2022-07-18T20:53:44;101228.03;;;20.64;87.40
50364;BME280;36272;59.400;17.982;2022-07-18T20:58:46;101226.41;;;20.63;87.58
50364;BME280;36272;59.400;17.982;2022-07-18T21:03:48;101220.97;;;20.58;87.50
50364;BME280;36272;59.400;17.982;2022-07-18T21:08:49;101227.56;;;20.52;87.86
50364;BME280;36272;59.400;17.982;2022-07-18T21:13:51;101225.09;;;20.45;87.10
50364;BME280;36272;59.400;17.982;2022-07-18T21:18:52;101228.66;;;20.35;87.78
50364;BME280;36272;59.400;17.982;2022-07-18T21:23:54;101223.81;;;20.27;88.16
50364;BME280;36272;59.400;17.982;2022-07-18T21:28:56;101223.00;;;20.21;87.90
50364;BME280;36272;59.400;17.982;2022-07-18T21:33:57;101215.13;;;20.14;88.08
50364;BME280;36272;59.400;17.982;2022-07-18T21:38:59;101221.69;;;20.08;88.36
50364;BME280;36272;59.400;17.982;2022-07-18T21:44:01;101214.63;;;20.02;88.36
50364;BME280;36272;59.400;17.982;2022-07-18T21:49:02;101215.19;;;19.99;88.67
50364;BME280;36272;59.400;17.982;2022-07-18T21:54:04;101207.84;;;19.99;88.78
50364;BME280;36272;59.400;17.982;2022-07-18T21:59:05;101213.00;;;19.96;88.87
50364;BME280;36272;59.400;17.982;2022-07-18T22:04:07;101195.09;;;19.89;88.94
50364;BME280;36272;59.400;17.982;2022-07-18T22:09:09;101210.25;;;19.85;88.96
50364;BME280;36272;59.400;17.982;2022-07-18T22:14:12;101194.81;;;19.81;89.17
50364;BME280;36272;59.400;17.982;2022-07-18T22:19:14;101202.13;;;19.75;89.56
50364;BME280;36272;59.400;17.982;2022-07-18T22:24:16;101199.94;;;19.67;89.70
50364;BME280;36272;59.400;17.982;2022-07-18T22:29:17;101196.72;;;19.59;89.76
50364;BME280;36272;59.400;17.982;2022-07-18T22:34:19;101195.09;;;19.53;90.04
50364;BME280;36272;59.400;17.982;2022-07-18T22:39:21;101194.81;;;19.50;90.11
50364;BME280;36272;59.400;17.982;2022-07-18T22:44:23;101193.19;;;19.49;90.13
50364;BME280;36272;59.400;17.982;2022-07-18T22:49:24;101186.94;;;19.48;90.46
50364;BME280;36272;59.400;17.982;2022-07-18T22:54:26;101191.28;;;19.44;90.44
50364;BME280;36272;59.400;17.982;2022-07-18T22:59:27;101192.91;;;19.40;90.39
50364;BME280;36272;59.400;17.982;2022-07-18T23:04:29;101189.63;;;19.32;90.66
50364;BME280;36272;59.400;17.982;2022-07-18T23:09:31;101193.19;;;19.28;90.49
50364;BME280;36272;59.400;17.982;2022-07-18T23:14:34;101192.09;;;19.24;90.77
50364;BME280;36272;59.400;17.982;2022-07-18T23:19:36;101187.19;;;19.21;90.80
50364;BME280;36272;59.400;17.982;2022-07-18T23:24:38;101188.53;;;19.23;90.46
50364;BME280;36272;59.400;17.982;2022-07-18T23:29:40;101184.75;;;19.19;90.47
50364;BME280;36272;59.400;17.982;2022-07-18T23:34:42;101176.09;;;19.17;90.45
50364;BME280;36272;59.400;17.982;2022-07-18T23:39:44;101195.84;;;19.12;90.28
50364;BME280;36272;59.400;17.982;2022-07-18T23:44:45;101201.81;;;19.09;90.60
50364;BME280;36272;59.400;17.982;2022-07-18T23:49:47;101194.75;;;19.08;90.31
50364;BME280;36272;59.400;17.982;2022-07-18T23:54:49;101200.19;;;19.08;90.50
50364;BME280;36272;59.400;17.982;2022-07-18T23:59:51;101198.53;;;19.07;90.39
